Time;durP1;ratioP1;P1;durP2;ratioP2;P2;SDS_P1;SDS_P2;PMS_P1;PMS_P2;Temp;Humidity;BMP_temperature;BMP_pressure;BME280_temperature;BME280_humidity;BME280_pressure;Samples;Min_cycle;Max_cycle;Signal;HPM_P1;HPM_P2
2023/05/12 00:04:01;;;;;;;9.33;3.93;;;;;;;13.95;50.68;101114.71;5188607;55;1141015;-74
2023/05/12 00:09:07;;;;;;;8.40;4.53;;;;;;;13.86;50.90;101106.17;5188684;55;1138846;-74
2023/05/12 00:14:12;;;;;;;17.53;4.50;;;;;;;13.73;51.37;101103.67;5208993;55;1138812;-74
2023/05/12 00:19:19;;;;;;;12.27;4.47;;;;;;;13.63;51.87;101106.22;5083301;55;1140734;-75
2023/05/12 00:24:24;;;;;;;16.03;4.97;;;;;;;13.54;52.02;101106.12;5071801;56;1140742;-74
2023/05/12 00:29:30;;;;;;;8.50;4.40;;;;;;;13.45;52.46;101101.05;5037997;57;1142114;-75
2023/05/12 00:34:36;;;;;;;8.33;5.00;;;;;;;13.37;52.56;101104.81;5086321;55;1138907;-75
2023/05/12 00:39:41;;;;;;;8.80;4.08;;;;;;;13.33;52.93;101108.20;5070193;55;1138860;-74
2023/05/12 00:44:47;;;;;;;11.70;4.93;;;;;;;13.30;52.90;101108.92;5018583;56;1138968;-75
2023/05/12 00:49:53;;;;;;;11.07;5.13;;;;;;;13.24;53.44;101106.77;5037324;56;1141274;-74
2023/05/12 00:55:01;;;;;;;11.73;4.33;;;;;;;13.20;53.29;101102.66;5017966;56;1140853;-75
2023/05/12 01:00:07;;;;;;;10.03;4.53;;;;;;;13.14;53.41;101105.27;5017583;56;1140809;-73
2023/05/12 01:05:14;;;;;;;9.47;5.13;;;;;;;13.10;53.61;101108.31;5009482;56;1141027;-74
2023/05/12 01:10:21;;;;;;;6.80;4.60;;;;;;;13.04;53.80;101110.47;5018139;56;1139054;-75
2023/05/12 01:15:27;;;;;;;8.33;4.33;;;;;;;12.99;54.28;101107.32;5022823;56;1138845;-75
2023/05/12 01:20:34;;;;;;;7.43;4.63;;;;;;;12.92;54.06;101114.58;5101841;56;1138929;-74
2023/05/12 01:25:41;;;;;;;13.48;5.92;;;;;;;12.78;54.68;101116.98;5121977;55;1138776;-75
2023/05/12 01:30:48;;;;;;;8.13;4.83;;;;;;;12.69;55.31;101117.66;5030446;56;1140880;-74
2023/05/12 01:35:54;;;;;;;9.03;4.70;;;;;;;12.57;55.78;101119.45;5101910;55;1138779;-74
2023/05/12 01:41:00;;;;;;;8.70;5.27;;;;;;;12.46;55.70;101119.44;5111918;55;1138887;-74
2023/05/12 01:46:05;;;;;;;15.03;5.20;;;;;;;12.34;56.41;101117.72;5071511;57;1138859;-75
2023/05/12 01:51:11;;;;;;;6.47;4.80;;;;;;;12.25;56.57;101125.87;5071461;56;1140889;-74
2023/05/12 01:56:17;;;;;;;9.53;4.33;;;;;;;12.13;57.22;101125.46;5091696;56;1138801;-74
2023/05/12 02:01:27;;;;;;;8.60;4.67;;;;;;;11.98;57.66;101126.59;5047353;55;1138734;-74
2023/05/12 02:06:31;;;;;;;8.83;4.60;;;;;;;11.86;58.26;101141.61;5071909;55;1138997;-74
2023/05/12 02:11:37;;;;;;;11.33;4.23;;;;;;;11.75;58.68;101144.17;5036353;56;1138939;-74
2023/05/12 02:16:44;;;;;;;12.90;4.87;;;;;;;11.58;59.56;101142.73;5064034;55;1140967;-74
2023/05/12 02:21:50;;;;;;;7.77;4.67;;;;;;;11.51;59.71;101148.09;5107976;55;1141011;-74
2023/05/12 02:26:55;;;;;;;8.00;4.70;;;;;;;11.39;60.40;101149.44;5093059;56;1138972;-74
2023/05/12 02:32:01;;;;;;;10.40;5.67;;;;;;;11.39;60.40;101149.44;5050966;56;1138761;-74
2023/05/12 02:37:06;;;;;;;10.23;4.73;;;;;;;11.35;60.95;101150.61;5016369;56;1140834;-74
2023/05/12 02:42:12;;;;;;;9.50;4.63;;;;;;;11.33;61.24;101152.03;5017754;55;1140909;-74
2023/05/12 02:47:19;;;;;;;12.70;5.60;;;;;;;11.38;61.22;101160.98;5037342;57;1138867;-74
2023/05/12 02:52:24;;;;;;;11.87;5.50;;;;;;;11.40;61.30;101158.61;5017009;56;1140863;-74
2023/05/12 02:57:33;;;;;;;10.82;5.28;;;;;;;11.39;61.43;101160.88;5057803;56;1149941;-75
2023/05/12 03:02:40;;;;;;;17.48;5.67;;;;;;;11.31;61.23;101160.56;5091007;55;1140971;-74
2023/05/12 03:07:48;;;;;;;8.10;5.33;;;;;;;11.25;61.97;101168.48;5094842;55;1140835;-74
2023/05/12 03:12:54;;;;;;;15.08;6.08;;;;;;;11.21;62.12;101160.84;5017687;55;1138972;-74
2023/05/12 03:18:00;;;;;;;8.30;4.60;;;;;;;11.15;62.23;101166.59;5016378;56;1140904;-75
2023/05/12 03:23:07;;;;;;;7.63;4.73;;;;;;;11.10;62.27;101165.58;5057918;55;1138675;-74
2023/05/12 03:28:13;;;;;;;9.77;5.10;;;;;;;11.10;62.86;101168.23;5055308;55;1138805;-74
2023/05/12 03:33:19;;;;;;;8.17;4.60;;;;;;;11.07;62.83;101171.08;5151590;55;1138905;-75
2023/05/12 03:38:25;;;;;;;17.67;5.30;;;;;;;10.88;63.87;101165.34;5121266;55;1138754;-75
2023/05/12 03:43:32;;;;;;;13.55;5.40;;;;;;;10.88;63.87;101165.34;5114994;56;1142026;-76
2023/05/12 03:48:37;;;;;;;8.00;5.08;;;;;;;10.90;64.04;101170.91;5085655;56;1140907;-74
2023/05/12 03:53:45;;;;;;;17.40;5.90;;;;;;;10.87;64.68;101176.41;5121249;56;1138930;-74
2023/05/12 03:58:50;;;;;;;10.63;4.93;;;;;;;10.90;64.55;101170.06;5098857;56;1141026;-74
2023/05/12 04:03:57;;;;;;;8.63;5.60;;;;;;;10.92;64.30;101186.69;5154679;55;1141070;-74
2023/05/12 04:09:02;;;;;;;13.20;5.20;;;;;;;10.98;64.62;101187.61;5205835;55;1138750;-74
2023/05/12 04:14:08;;;;;;;11.13;5.17;;;;;;;11.00;64.50;101193.62;5155889;55;1140915;-74
2023/05/12 04:19:14;;;;;;;11.63;5.40;;;;;;;11.01;65.11;101190.02;5016624;56;1140974;-74
2023/05/12 04:24:20;;;;;;;23.30;5.87;;;;;;;11.00;65.02;101190.16;5034730;57;1140875;-75
2023/05/12 04:29:26;;;;;;;20.27;5.37;;;;;;;11.02;65.10;101189.54;5011133;56;1140969;-74
2023/05/12 04:34:33;;;;;;;10.10;5.28;;;;;;;11.07;64.81;101198.03;5089464;55;1141367;-75
2023/05/12 04:39:39;;;;;;;14.47;4.63;;;;;;;11.13;64.75;101201.59;5105719;55;1150476;-74
2023/05/12 04:44:45;;;;;;;10.55;5.05;;;;;;;11.19;64.85;101208.61;5061949;55;1141060;-74
2023/05/12 04:49:51;;;;;;;11.93;5.67;;;;;;;11.24;64.61;101203.86;5035077;56;1140849;-74
2023/05/12 04:54:57;;;;;;;15.27;4.90;;;;;;;11.33;64.74;101211.62;5121644;56;1141111;-75
2023/05/12 05:00:04;;;;;;;13.37;4.93;;;;;;;11.39;65.12;101217.83;5035516;56;1140827;-74
2023/05/12 05:05:10;;;;;;;9.97;5.57;;;;;;;11.48;64.63;101222.95;5016508;56;1140943;-74
2023/05/12 05:10:17;;;;;;;12.87;4.70;;;;;;;11.53;64.81;101225.66;5139776;56;1138720;-74
2023/05/12 05:15:23;;;;;;;15.10;5.60;;;;;;;11.62;64.43;101230.29;5092290;55;1140924;-74
2023/05/12 05:20:31;;;;;;;13.13;5.33;;;;;;;11.78;64.80;101235.38;5004478;56;1140724;-74
2023/05/12 05:25:36;;;;;;;14.93;5.37;;;;;;;11.98;64.45;101238.79;5003657;57;1141112;-74
2023/05/12 05:30:42;;;;;;;17.50;5.17;;;;;;;12.14;64.22;101226.59;5080883;56;1141152;-75
2023/05/12 05:35:48;;;;;;;19.05;4.95;;;;;;;12.37;64.33;101237.34;5143182;55;1141004;-75
2023/05/12 05:40:54;;;;;;;13.97;4.93;;;;;;;12.58;63.71;101225.12;5149525;56;1141036;-75
2023/05/12 05:46:02;;;;;;;7.27;4.90;;;;;;;12.80;63.55;101229.67;5106097;56;1140730;-75
2023/05/12 05:51:10;;;;;;;15.67;5.63;;;;;;;13.01;62.77;101235.99;5068618;56;1138747;-74
2023/05/12 05:56:16;;;;;;;10.20;4.60;;;;;;;13.21;62.21;101236.67;5013240;55;1140966;-75
2023/05/12 06:01:21;;;;;;;12.57;5.00;;;;;;;13.46;62.07;101242.25;5035371;56;1140927;-74
2023/05/12 06:06:29;;;;;;;9.00;4.37;;;;;;;13.71;61.24;101244.69;5037424;56;1140938;-74
2023/05/12 06:11:34;;;;;;;6.70;4.37;;;;;;;13.94;60.35;101246.83;5051757;56;1145596;-75
2023/05/12 06:16:40;;;;;;;12.40;4.22;;;;;;;14.12;59.84;101249.83;5108576;56;1138735;-75
2023/05/12 06:21:52;;;;;;;8.15;4.20;;;;;;;14.33;59.88;101262.73;5024080;55;1141024;-75
2023/05/12 06:26:55;;;;;;;7.80;4.53;;;;;;;14.58;58.96;101270.06;5109591;55;1138826;-75
2023/05/12 06:32:01;;;;;;;11.43;4.03;;;;;;;14.75;58.15;101266.85;5102628;56;1138877;-74
2023/05/12 06:37:07;;;;;;;17.80;4.50;;;;;;;14.97;58.37;101271.24;5040804;56;1140921;-75
2023/05/12 06:42:12;;;;;;;12.73;4.67;;;;;;;15.20;57.43;101278.13;5040895;56;1140871;-75
2023/05/12 06:47:21;;;;;;;13.93;4.63;;;;;;;15.39;56.05;101272.92;5057586;55;1140961;-77
2023/05/12 06:52:27;;;;;;;9.57;3.47;;;;;;;15.65;57.70;101265.84;5117622;55;1140883;-77
2023/05/12 06:57:33;;;;;;;9.40;5.12;;;;;;;15.94;54.93;101275.30;5013737;55;1138822;-77
2023/05/12 07:02:39;;;;;;;6.63;3.50;;;;;;;16.08;56.03;101270.91;5056789;55;1139117;-77
2023/05/12 07:07:45;;;;;;;17.15;4.03;;;;;;;16.39;55.83;101267.69;5017184;55;1138825;-77
2023/05/12 07:12:51;;;;;;;14.37;4.17;;;;;;;16.72;53.79;101268.66;5064072;56;1149034;-76
2023/05/12 07:17:56;;;;;;;13.17;3.97;;;;;;;16.96;54.34;101262.06;5098251;56;1140954;-77
2023/05/12 07:23:02;;;;;;;13.80;4.83;;;;;;;17.25;53.97;101260.68;5098806;56;1140795;-77
2023/05/12 07:28:08;;;;;;;7.20;3.53;;;;;;;17.50;51.75;101252.86;5098858;56;1140799;-76
2023/05/12 07:33:14;;;;;;;16.67;3.37;;;;;;;17.65;50.22;101256.43;5112216;55;1138879;-77
2023/05/12 07:38:19;;;;;;;14.53;3.37;;;;;;;17.80;51.27;101249.11;5013641;57;1141029;-77
2023/05/12 07:43:25;;;;;;;13.90;3.57;;;;;;;18.00;48.94;101251.20;5081822;55;1140979;-77
2023/05/12 07:48:30;;;;;;;12.73;2.87;;;;;;;18.14;48.08;101253.87;5066034;56;1141033;-77
2023/05/12 07:53:36;;;;;;;10.63;3.20;;;;;;;18.23;47.20;101250.28;5035023;56;1140996;-78
2023/05/12 07:58:42;;;;;;;4.47;2.50;;;;;;;18.41;47.33;101251.64;5015416;56;1140790;-77
2023/05/12 08:03:49;;;;;;;9.20;2.67;;;;;;;18.59;44.83;101247.18;5025624;56;1138806;-76
2023/05/12 08:08:57;;;;;;;12.00;3.02;;;;;;;18.65;44.52;101247.05;5058349;56;1139042;-77
2023/05/12 08:14:02;;;;;;;32.13;3.33;;;;;;;18.68;44.86;101254.28;5037922;56;1140927;-77
2023/05/12 08:19:08;;;;;;;16.40;3.37;;;;;;;18.72;40.60;101247.63;5088560;55;1140957;-77
2023/05/12 08:24:14;;;;;;;7.27;2.73;;;;;;;18.81;40.76;101248.03;5119540;55;1140786;-77
2023/05/12 08:29:19;;;;;;;6.33;2.40;;;;;;;18.85;38.60;101250.75;5062360;56;1138841;-77
2023/05/12 08:34:26;;;;;;;24.17;3.60;;;;;;;18.90;38.63;101249.80;5038132;56;1138650;-77
2023/05/12 08:39:32;;;;;;;18.30;2.77;;;;;;;19.02;37.57;101251.73;5016515;56;1140896;-77
2023/05/12 08:44:39;;;;;;;16.77;3.83;;;;;;;19.12;37.25;101248.45;5038172;55;1141018;-77
2023/05/12 08:49:45;;;;;;;10.43;2.45;;;;;;;19.30;35.98;101240.36;4964302;56;1141120;-77
2023/05/12 08:54:52;;;;;;;18.17;2.55;;;;;;;19.38;37.14;101244.95;4964353;55;1140939;-78
2023/05/12 08:59:58;;;;;;;16.60;2.87;;;;;;;19.51;34.82;101240.02;4983059;56;1140929;-77
2023/05/12 09:05:04;;;;;;;9.23;2.30;;;;;;;19.56;37.04;101229.63;5025843;56;1140988;-77
2023/05/12 09:10:16;;;;;;;21.40;3.43;;;;;;;19.63;35.23;101243.61;5013891;57;1138935;-77
2023/05/12 09:15:26;;;;;;;5.58;1.98;;;;;;;19.72;33.80;101257.89;5020322;57;1140841;-77
2023/05/12 09:20:32;;;;;;;19.27;2.30;;;;;;;19.77;34.20;101254.23;4948231;57;1138923;-78
2023/05/12 09:25:38;;;;;;;5.53;2.40;;;;;;;19.91;34.58;101243.39;4939116;57;1141051;-77
2023/05/12 09:30:44;;;;;;;8.73;2.70;;;;;;;20.03;35.23;101244.27;4962104;57;1138846;-77
2023/05/12 09:35:49;;;;;;;7.57;2.33;;;;;;;20.18;34.27;101242.30;4889520;57;1138945;-77
2023/05/12 09:40:55;;;;;;;9.50;1.87;;;;;;;20.28;32.58;101238.48;4937096;57;1138823;-77
2023/05/12 09:46:05;;;;;;;10.00;2.60;;;;;;;20.34;31.42;101241.00;4971325;57;1138995;-78
2023/05/12 09:51:11;;;;;;;14.68;2.80;;;;;;;20.50;30.87;101247.78;4951992;56;1141111;-77
2023/05/12 09:56:18;;;;;;;10.25;2.00;;;;;;;20.56;32.04;101243.59;4952009;56;1141103;-78
2023/05/12 10:01:25;;;;;;;13.93;1.57;;;;;;;20.64;32.91;101252.50;4971261;57;1140886;-77
2023/05/12 10:06:41;;;;;;;8.35;1.90;;;;;;;20.79;33.05;101241.92;4980293;55;1140900;-77
2023/05/12 10:11:49;;;;;;;3.10;1.82;;;;;;;20.89;33.23;101237.23;5095992;55;1138953;-78
2023/05/12 10:16:55;;;;;;;10.63;2.37;;;;;;;20.95;31.71;101237.89;5083358;56;1138877;-77
2023/05/12 10:22:02;;;;;;;3.02;1.95;;;;;;;21.03;33.04;101234.37;5086322;56;1141037;-77
2023/05/12 10:27:08;;;;;;;14.43;2.62;;;;;;;21.14;34.50;101228.62;5092476;55;1138806;-77
2023/05/12 10:32:14;;;;;;;13.98;3.08;;;;;;;21.19;30.83;101238.42;5083542;56;1140943;-77
2023/05/12 10:37:21;;;;;;;6.12;2.37;;;;;;;21.19;30.83;101238.42;5103690;55;1140892;-76
2023/05/12 10:42:27;;;;;;;6.75;2.30;;;;;;;21.11;31.43;101238.38;5142510;55;1138744;-78
2023/05/12 10:47:39;;;;;;;21.02;2.66;;;;;;;21.21;33.30;101232.37;5164036;55;1138890;-76
2023/05/12 10:52:57;;;;;;;1.83;1.70;;;;;;;21.32;31.16;101223.92;5177332;56;1140920;-76
2023/05/12 10:58:11;;;;;;;10.28;2.30;;;;;;;21.45;31.04;101231.46;5157117;55;1138877;-78
2023/05/12 11:03:19;;;;;;;13.18;2.15;;;;;;;21.51;31.63;101231.28;5155152;56;1140854;-77
2023/05/12 11:08:25;;;;;;;9.20;2.40;;;;;;;21.61;31.53;101216.61;5121001;56;1140820;-77
2023/05/12 11:13:31;;;;;;;7.58;2.22;;;;;;;21.67;31.41;101216.43;5112668;55;1138823;-78
2023/05/12 11:18:37;;;;;;;5.78;2.65;;;;;;;21.80;30.97;101216.70;5120369;55;1138802;-78
2023/05/12 11:23:43;;;;;;;11.73;2.02;;;;;;;21.84;30.49;101227.47;5121556;56;1138768;-77
2023/05/12 11:28:48;;;;;;;13.78;2.35;;;;;;;21.75;32.10;101213.18;5100824;55;1140956;-77
2023/05/12 11:34:06;;;;;;;5.20;1.87;;;;;;;21.88;32.11;101217.16;5033424;56;1141048;-77
2023/05/12 11:39:23;;;;;;;5.03;2.10;;;;;;;22.03;32.55;101212.73;5075609;56;1138731;-78
2023/05/12 11:44:29;;;;;;;9.23;2.10;;;;;;;22.13;32.03;101222.81;5017346;57;1138828;-77
2023/05/12 11:49:38;;;;;;;8.20;2.83;;;;;;;22.16;32.29;101218.39;5022107;56;1138794;-77
2023/05/12 11:55:04;;;;;;;13.08;2.02;;;;;;;22.25;32.32;101216.50;5121850;56;1138732;-77
2023/05/12 12:00:08;;;;;;;14.40;2.77;;;;;;;22.25;31.42;101215.16;5065097;56;1140765;-75
2023/05/12 12:05:20;;;;;;;10.68;2.33;;;;;;;22.19;30.11;101223.94;5101757;55;1140844;-78
2023/05/12 12:10:26;;;;;;;8.38;1.82;;;;;;;22.25;31.76;101205.72;5121462;56;1140790;-76
2023/05/12 12:15:32;;;;;;;16.62;2.47;;;;;;;22.42;32.33;101205.95;5065540;56;1138806;-78
2023/05/12 12:20:38;;;;;;;39.70;2.87;;;;;;;22.45;29.98;101215.03;5101792;56;1140995;-78
2023/05/12 12:25:44;;;;;;;8.05;2.25;;;;;;;22.41;28.76;101207.80;5047195;56;1140849;-78
2023/05/12 12:30:49;;;;;;;10.78;2.08;;;;;;;22.45;29.89;101205.59;5083876;56;1138866;-77
2023/05/12 12:35:55;;;;;;;13.15;2.47;;;;;;;22.52;28.59;101208.39;5104138;55;1140852;-77
2023/05/12 12:41:01;;;;;;;4.72;2.00;;;;;;;22.61;29.33;101204.09;5135997;56;1140917;-75
2023/05/12 12:46:07;;;;;;;14.23;1.85;;;;;;;22.65;28.89;101199.19;5018140;56;1138800;-75
2023/05/12 12:51:13;;;;;;;20.20;2.77;;;;;;;22.76;29.81;101209.05;5017821;56;1140826;-75
2023/05/12 12:56:20;;;;;;;10.45;2.12;;;;;;;22.71;28.07;101205.21;5037754;56;1140916;-75
2023/05/12 13:01:27;;;;;;;7.75;1.82;;;;;;;22.66;27.79;101205.75;5047304;56;1140737;-75
2023/05/12 13:06:33;;;;;;;11.97;2.00;;;;;;;22.63;28.26;101206.10;5070914;56;1138998;-75
2023/05/12 13:11:39;;;;;;;23.43;3.50;;;;;;;22.59;28.57;101197.23;5108625;55;1140953;-75
2023/05/12 13:16:45;;;;;;;7.85;1.82;;;;;;;22.59;29.21;101198.06;5070850;55;1140981;-75
2023/05/12 13:21:51;;;;;;;10.58;2.30;;;;;;;22.67;30.13;101190.41;5057713;56;1138760;-75
2023/05/12 13:26:56;;;;;;;6.53;2.03;;;;;;;22.79;29.66;101185.77;5055217;55;1140876;-74
2023/05/12 13:32:02;;;;;;;9.63;2.22;;;;;;;22.87;30.02;101185.38;5151592;55;1138801;-75
2023/05/12 13:37:08;;;;;;;10.23;3.67;;;;;;;22.77;28.64;101185.11;5032375;56;1138789;-73
2023/05/12 13:42:13;;;;;;;6.50;2.58;;;;;;;22.73;30.10;101178.91;4923732;57;1140884;-73
2023/05/12 13:47:19;;;;;;;21.35;2.72;;;;;;;22.92;29.06;101181.61;4980612;57;1138713;-73
2023/05/12 13:52:24;;;;;;;4.15;2.27;;;;;;;22.85;29.34;101179.33;5010713;57;1140909;-72
2023/05/12 13:57:30;;;;;;;3.67;2.33;;;;;;;22.86;29.71;101175.61;4963756;56;1138898;-75
2023/05/12 14:02:36;;;;;;;18.10;2.90;;;;;;;22.87;29.42;101167.85;4970579;57;1138859;-75
2023/05/12 14:07:41;;;;;;;9.88;1.98;;;;;;;22.83;29.14;101174.62;4948080;57;1141511;-75
2023/05/12 14:12:47;;;;;;;6.78;3.10;;;;;;;22.61;29.77;101177.13;4929450;58;1138815;-74
2023/05/12 14:17:53;;;;;;;8.88;2.62;;;;;;;22.70;29.97;101168.48;4951902;57;1138812;-75
2023/05/12 14:22:58;;;;;;;11.90;2.42;;;;;;;22.65;30.59;101167.66;5020821;57;1138971;-74
2023/05/12 14:28:04;;;;;;;20.57;4.10;;;;;;;22.65;29.36;101171.70;4854084;57;1140925;-74
2023/05/12 14:33:10;;;;;;;12.40;6.67;;;;;;;22.73;29.71;101174.34;4927721;58;1140899;-74
2023/05/12 14:38:15;;;;;;;18.55;2.85;;;;;;;22.73;30.17;101179.74;4872469;58;1140889;-75
2023/05/12 14:43:21;;;;;;;7.12;2.22;;;;;;;22.75;29.02;101175.02;4932770;57;1140819;-74
2023/05/12 14:48:27;;;;;;;6.70;3.10;;;;;;;22.74;28.75;101176.54;4853692;58;1138930;-75
2023/05/12 14:53:32;;;;;;;11.95;3.55;;;;;;;22.70;29.54;101170.66;4853745;58;1139090;-75
2023/05/12 14:58:38;;;;;;;5.10;3.33;;;;;;;22.68;29.14;101174.55;4872584;59;1140937;-75
2023/05/12 15:03:45;;;;;;;6.17;2.87;;;;;;;22.63;28.81;101170.20;4843430;57;1138894;-75
2023/05/12 15:08:51;;;;;;;9.27;3.40;;;;;;;22.69;30.47;101181.12;4914391;57;1138951;-75
2023/05/12 15:13:56;;;;;;;7.70;2.75;;;;;;;22.67;29.81;101173.72;4872934;58;1138871;-74
2023/05/12 15:19:02;;;;;;;5.67;3.72;;;;;;;22.67;29.81;101173.72;4965684;57;1138836;-75
2023/05/12 15:24:07;;;;;;;7.15;2.00;;;;;;;22.68;29.78;101174.05;4994316;57;1138902;-75
2023/05/12 15:29:13;;;;;;;10.18;2.65;;;;;;;22.58;29.40;101172.63;5033018;57;1139025;-76
2023/05/12 15:34:19;;;;;;;17.90;3.83;;;;;;;22.58;28.96;101175.33;4998120;56;1140782;-75
2023/05/12 15:39:25;;;;;;;18.62;2.80;;;;;;;22.53;29.00;101173.16;4931583;57;1140883;-77
2023/05/12 15:44:31;;;;;;;14.70;2.65;;;;;;;22.48;29.88;101180.11;4931868;58;1141288;-75
2023/05/12 15:49:36;;;;;;;4.03;2.00;;;;;;;22.42;29.37;101174.95;5032521;56;1140866;-76
2023/05/12 15:54:42;;;;;;;7.80;2.47;;;;;;;22.35;29.07;101184.75;4999216;57;1138753;-75
2023/05/12 15:59:47;;;;;;;10.90;2.47;;;;;;;22.34;30.05;101184.42;5013660;57;1138813;-76
2023/05/12 16:04:53;;;;;;;6.53;2.70;;;;;;;22.38;29.33;101174.97;5028086;57;1140835;-77
2023/05/12 16:09:59;;;;;;;15.93;11.28;;;;;;;22.25;29.09;101175.57;5085612;56;1138765;-76
2023/05/12 16:15:05;;;;;;;26.12;3.02;;;;;;;22.18;28.70;101177.80;5082883;56;1143002;-75
2023/05/12 16:20:12;;;;;;;8.25;3.00;;;;;;;22.13;28.88;101174.31;5105835;56;1140988;-75
2023/05/12 16:25:18;;;;;;;8.73;3.60;;;;;;;22.14;29.67;101173.80;5080049;56;1138888;-76
2023/05/12 16:30:25;;;;;;;5.78;2.30;;;;;;;22.07;28.66;101173.16;5029344;55;1138960;-76
2023/05/12 16:35:30;;;;;;;8.30;4.50;;;;;;;21.96;29.66;101168.15;4972786;57;1138925;-76
2023/05/12 16:40:36;;;;;;;10.25;4.28;;;;;;;21.97;30.22;101179.77;4970822;57;1138896;-76
2023/05/12 16:45:42;;;;;;;8.13;2.25;;;;;;;21.96;29.41;101172.19;4962904;57;1140896;-76
2023/05/12 16:50:47;;;;;;;23.85;12.93;;;;;;;21.78;29.05;101174.30;5007267;57;1138813;-75
2023/05/12 16:55:53;;;;;;;19.40;10.75;;;;;;;21.65;29.86;101174.03;5098082;56;1143096;-76
2023/05/12 17:01:00;;;;;;;19.55;3.30;;;;;;;21.61;30.32;101178.92;5037034;56;1143034;-76
2023/05/12 17:06:06;;;;;;;7.95;2.70;;;;;;;21.53;30.06;101184.85;4979358;57;1141232;-76
2023/05/12 17:11:11;;;;;;;6.47;2.25;;;;;;;21.40;29.71;101182.69;5080679;56;1138781;-76
2023/05/12 17:16:17;;;;;;;7.65;3.67;;;;;;;21.32;30.00;101184.07;5102958;55;1138823;-75
2023/05/12 17:21:23;;;;;;;13.90;2.80;;;;;;;21.20;30.35;101190.83;5039495;55;1138848;-76
2023/05/12 17:26:29;;;;;;;8.58;3.08;;;;;;;21.06;30.63;101194.53;5093034;55;1141023;-77
2023/05/12 17:31:35;;;;;;;9.10;4.15;;;;;;;20.95;31.01;101200.23;5036749;56;1139019;-77
2023/05/12 17:36:40;;;;;;;11.53;2.75;;;;;;;20.84;31.08;101197.06;5040100;55;1138869;-77
2023/05/12 17:41:47;;;;;;;9.14;3.44;;;;;;;20.71;30.94;101205.14;5139063;55;1141147;-77
2023/05/12 17:46:53;;;;;;;8.38;3.40;;;;;;;20.64;31.55;101209.48;5076023;55;1138885;-75
2023/05/12 17:51:59;;;;;;;9.37;3.07;;;;;;;20.55;31.21;101217.73;5100143;55;1138789;-78
2023/05/12 17:57:05;;;;;;;10.00;3.00;;;;;;;20.47;31.55;101226.61;5172444;55;1138758;-77
2023/05/12 18:02:12;;;;;;;11.90;2.92;;;;;;;20.38;31.50;101223.58;5165382;55;1140912;-76
2023/05/12 18:07:18;;;;;;;5.97;3.42;;;;;;;20.27;31.45;101231.93;5041082;56;1141025;-74
2023/05/12 18:12:24;;;;;;;3.67;2.47;;;;;;;20.21;31.97;101239.29;5091977;55;1138785;-77
2023/05/12 18:17:30;;;;;;;3.37;2.15;;;;;;;20.09;31.83;101240.10;5077418;56;1138815;-77
2023/05/12 18:22:35;;;;;;;11.05;2.77;;;;;;;19.99;31.91;101246.97;5120144;55;1138670;-75
2023/05/12 18:27:41;;;;;;;9.68;3.25;;;;;;;19.88;32.10;101255.28;5156406;55;1140827;-78
2023/05/12 18:32:47;;;;;;;8.37;2.73;;;;;;;19.76;32.61;101253.90;5040925;56;1138991;-77
2023/05/12 18:37:52;;;;;;;8.60;2.84;;;;;;;19.61;31.95;101260.36;5037541;56;1138826;-78
2023/05/12 18:42:59;;;;;;;7.45;4.33;;;;;;;19.49;32.11;101262.11;5066407;56;1138866;-77
2023/05/12 18:48:04;;;;;;;9.63;3.50;;;;;;;19.45;32.58;101268.78;5071386;57;1138902;-75
2023/05/12 18:53:10;;;;;;;7.12;2.65;;;;;;;19.40;32.77;101275.14;5091263;56;1138681;-77
2023/05/12 18:58:16;;;;;;;7.28;2.92;;;;;;;19.28;33.54;101274.04;5071365;56;1138789;-76
2023/05/12 19:03:22;;;;;;;20.12;3.00;;;;;;;19.15;33.59;101287.52;5115846;55;1138692;-76
2023/05/12 19:08:27;;;;;;;14.20;3.60;;;;;;;19.02;33.78;101293.78;5148409;55;1140877;-75
2023/05/12 19:13:33;;;;;;;8.05;4.60;;;;;;;18.91;34.20;101298.89;5036236;56;1141095;-75
2023/05/12 19:18:39;;;;;;;15.33;3.53;;;;;;;18.72;34.34;101301.72;5073231;55;1138936;-75
2023/05/12 19:23:44;;;;;;;8.40;3.15;;;;;;;18.58;34.55;101297.70;4989747;56;1140914;-77
2023/05/12 19:28:50;;;;;;;15.57;4.03;;;;;;;18.47;34.96;101302.80;5096015;56;1138754;-77
2023/05/12 19:33:55;;;;;;;11.45;4.67;;;;;;;18.32;34.97;101301.62;5110450;55;1140909;-77
2023/05/12 19:39:01;;;;;;;10.30;3.37;;;;;;;18.17;35.26;101307.13;5129255;55;1141001;-76
2023/05/12 19:44:07;;;;;;;7.15;3.27;;;;;;;18.08;35.48;101318.22;5104444;56;1140884;-77
2023/05/12 19:49:13;;;;;;;9.13;3.27;;;;;;;18.01;35.53;101317.63;5115506;55;1138909;-76
2023/05/12 19:54:21;;;;;;;15.80;3.23;;;;;;;17.96;35.70;101320.73;5113597;55;1138717;-76
2023/05/12 19:59:26;;;;;;;5.40;3.00;;;;;;;17.93;35.80;101320.53;5096718;55;1141016;-77
2023/05/12 20:04:32;;;;;;;2.70;2.50;;;;;;;17.89;35.84;101320.96;5064445;56;1138957;-76
2023/05/12 20:09:39;;;;;;;17.30;3.20;;;;;;;17.83;36.08;101320.23;5081609;55;1139126;-77
2023/05/12 20:14:45;;;;;;;5.33;3.30;;;;;;;17.73;36.16;101323.41;5098195;56;1141245;-75
2023/05/12 20:19:51;;;;;;;11.40;2.97;;;;;;;17.62;36.52;101328.42;5081069;55;1138936;-74
2023/05/12 20:25:02;;;;;;;10.70;3.13;;;;;;;17.49;36.79;101327.89;5087787;54;1140959;-76
2023/05/12 20:30:04;;;;;;;5.05;3.67;;;;;;;17.36;36.79;101328.20;5058204;55;1140925;-75
2023/05/12 20:35:10;;;;;;;7.80;3.30;;;;;;;17.25;37.26;101332.87;5042361;56;1138765;-76
2023/05/12 20:40:16;;;;;;;8.27;3.80;;;;;;;17.13;37.51;101341.02;5045499;56;1138747;-76
2023/05/12 20:45:21;;;;;;;13.90;3.47;;;;;;;17.05;37.71;101339.55;5065634;56;1138744;-76
2023/05/12 20:50:30;;;;;;;7.03;3.57;;;;;;;16.99;37.77;101345.44;5094552;55;1140801;-77
2023/05/12 20:55:36;;;;;;;9.47;3.13;;;;;;;16.96;37.90;101342.23;5166275;55;1138903;-77
2023/05/12 21:00:41;;;;;;;8.03;3.20;;;;;;;16.91;37.85;101348.48;5186181;54;1138972;-76
2023/05/12 21:05:48;;;;;;;10.90;3.73;;;;;;;16.86;38.05;101344.88;5206605;55;1138706;-75
2023/05/12 21:10:54;;;;;;;10.13;3.20;;;;;;;16.78;38.12;101350.09;5185650;55;1141228;-76
2023/05/12 21:15:59;;;;;;;10.50;3.33;;;;;;;16.73;38.47;101361.67;5156544;55;1140843;-78
2023/05/12 21:21:06;;;;;;;16.52;3.67;;;;;;;16.67;38.69;101359.53;5091160;55;1141047;-78
2023/05/12 21:26:15;;;;;;;11.90;4.00;;;;;;;16.63;38.86;101359.48;5020850;56;1141070;-78
2023/05/12 21:31:21;;;;;;;23.40;5.13;;;;;;;16.54;39.00;101366.44;4956702;56;1141062;-76
2023/05/12 21:36:27;;;;;;;15.33;3.90;;;;;;;16.45;39.34;101369.45;4983070;56;1140945;-78
2023/05/12 21:41:32;;;;;;;7.67;3.47;;;;;;;16.35;39.57;101365.89;4877732;57;1140965;-78
2023/05/12 21:46:38;;;;;;;7.15;3.60;;;;;;;16.23;39.94;101368.80;4924529;57;1138794;-75
2023/05/12 21:51:43;;;;;;;7.50;3.90;;;;;;;16.13;40.44;101368.28;4994836;57;1138794;-76
2023/05/12 21:56:49;;;;;;;7.03;4.27;;;;;;;15.98;40.81;101370.11;4898862;57;1138875;-77
2023/05/12 22:01:55;;;;;;;10.38;3.84;;;;;;;15.87;41.22;101379.53;5019094;57;1138742;-77
2023/05/12 22:07:01;;;;;;;4.60;3.35;;;;;;;15.72;41.50;101379.03;5075421;55;1140910;-77
2023/05/12 22:12:12;;;;;;;7.50;4.35;;;;;;;15.55;42.01;101380.47;4977671;56;1138741;-77
2023/05/12 22:17:14;;;;;;;8.73;3.97;;;;;;;15.38;42.75;101387.67;5127211;55;1138741;-76
2023/05/12 22:22:20;;;;;;;9.03;3.53;;;;;;;15.27;43.47;101382.40;5069875;56;1138846;-76
2023/05/12 22:27:25;;;;;;;9.20;4.10;;;;;;;15.14;43.70;101382.55;5062392;55;1138811;-77
2023/05/12 22:32:31;;;;;;;12.53;4.20;;;;;;;15.02;44.10;101379.09;5060011;56;1138876;-76
2023/05/12 22:37:37;;;;;;;5.97;3.60;;;;;;;14.91;44.49;101374.30;5099178;55;1140959;-76
2023/05/12 22:42:43;;;;;;;10.20;4.00;;;;;;;14.81;45.07;101374.21;5119161;56;1138864;-76
2023/05/12 22:47:48;;;;;;;8.63;4.00;;;;;;;14.60;45.71;101375.94;5098602;55;1140986;-75
2023/05/12 22:52:56;;;;;;;11.53;3.83;;;;;;;14.46;46.64;101382.37;4993214;56;1138819;-75
2023/05/12 22:58:01;;;;;;;12.63;3.83;;;;;;;14.33;46.92;101376.31;5057017;56;1140898;-77
2023/05/12 23:03:07;;;;;;;7.87;3.40;;;;;;;14.26;47.41;101380.42;5037538;56;1140895;-76